Time;durP1;ratioP1;P1;durP2;ratioP2;P2;SDS_P1;SDS_P2;PMS_P1;PMS_P2;Temp;Humidity;BMP_temperature;BMP_pressure;BME280_temperature;BME280_humidity;BME280_pressure;Samples;Min_cycle;Max_cycle;Signal;HPM_P1;HPM_P2
2023/12/06 00:01:48;;;;;;;56.45;25.35;;;0.60;99.90;;;;;;5034098;28;20137;-75
2023/12/06 00:04:13;;;;;;;59.88;25.95;;;0.60;99.90;;;;;;5038758;28;20047;-74
2023/12/06 00:06:39;;;;;;;65.80;26.67;;;0.60;99.90;;;;;;5031321;28;20122;-74
2023/12/06 00:09:05;;;;;;;58.40;25.35;;;0.60;99.90;;;;;;5026661;28;20045;-74
2023/12/06 00:11:30;;;;;;;59.15;26.90;;;0.60;99.90;;;;;;5030010;28;20075;-74
2023/12/06 00:13:56;;;;;;;64.00;27.05;;;0.60;99.90;;;;;;5025733;28;23065;-74
2023/12/06 00:16:22;;;;;;;65.45;28.05;;;0.60;99.90;;;;;;5024706;28;20045;-74
2023/12/06 00:18:49;;;;;;;62.38;28.33;;;0.60;99.90;;;;;;5029644;28;20037;-74
2023/12/06 00:21:15;;;;;;;63.47;26.38;;;0.60;99.90;;;;;;5033135;28;20033;-74
2023/12/06 00:23:40;;;;;;;62.10;26.50;;;0.60;99.90;;;;;;5034228;28;20053;-74
2023/12/06 00:26:06;;;;;;;63.70;27.90;;;0.60;99.90;;;;;;5029668;28;20029;-75
2023/12/06 00:28:32;;;;;;;58.95;25.83;;;0.60;99.90;;;;;;5026643;28;20496;-74
2023/12/06 00:30:57;;;;;;;61.72;27.42;;;0.60;99.90;;;;;;5030778;28;20072;-74
2023/12/06 00:33:23;;;;;;;56.65;28.70;;;0.60;99.90;;;;;;5027206;28;20045;-74
2023/12/06 00:35:49;;;;;;;64.18;27.60;;;0.70;99.90;;;;;;5019859;28;20037;-74
2023/12/06 00:38:15;;;;;;;62.20;26.85;;;0.60;99.90;;;;;;5028659;28;20384;-74
2023/12/06 00:40:40;;;;;;;64.40;27.25;;;0.60;99.90;;;;;;5043404;28;20131;-74
2023/12/06 00:43:06;;;;;;;63.00;27.30;;;0.60;99.90;;;;;;5027128;28;20116;-74
2023/12/06 00:45:32;;;;;;;64.47;27.70;;;0.60;99.90;;;;;;5030244;28;20044;-74
2023/12/06 00:47:58;;;;;;;62.45;27.20;;;0.60;99.90;;;;;;5048921;28;20147;-74
2023/12/06 00:50:23;;;;;;;68.72;29.23;;;0.60;99.90;;;;;;5050287;28;20127;-74
2023/12/06 00:52:49;;;;;;;59.53;27.67;;;0.60;99.90;;;;;;5033278;28;20063;-74
2023/12/06 00:55:15;;;;;;;62.90;27.67;;;0.60;99.90;;;;;;5033116;28;20101;-75
2023/12/06 00:57:40;;;;;;;67.88;27.65;;;0.60;99.90;;;;;;5029918;28;20146;-74
2023/12/06 01:00:07;;;;;;;65.03;26.65;;;0.60;99.90;;;;;;5044263;28;20039;-74
2023/12/06 01:02:32;;;;;;;65.40;28.90;;;0.70;99.90;;;;;;5037312;28;20454;-74
2023/12/06 01:04:58;;;;;;;68.90;27.98;;;0.60;99.90;;;;;;5030362;28;20124;-74
2023/12/06 01:07:24;;;;;;;66.30;27.20;;;0.60;99.90;;;;;;5043810;28;20033;-74
2023/12/06 01:09:49;;;;;;;65.80;26.73;;;0.70;99.90;;;;;;5039537;28;20785;-74
2023/12/06 01:12:15;;;;;;;65.70;26.15;;;0.70;99.90;;;;;;5049290;28;20133;-74
2023/12/06 01:14:41;;;;;;;62.53;26.50;;;0.70;99.90;;;;;;5037600;28;20068;-74
2023/12/06 01:17:06;;;;;;;61.33;27.58;;;0.70;99.90;;;;;;5030392;28;20037;-74
2023/12/06 01:19:32;;;;;;;65.07;28.38;;;0.70;99.90;;;;;;5032150;28;20540;-74
2023/12/06 01:21:58;;;;;;;67.60;29.35;;;0.70;99.90;;;;;;5024174;28;20053;-74
2023/12/06 01:24:23;;;;;;;68.53;27.73;;;0.70;99.90;;;;;;5007150;28;20037;-74
2023/12/06 01:26:49;;;;;;;63.20;27.60;;;0.70;99.90;;;;;;5024715;28;20434;-74
2023/12/06 01:29:15;;;;;;;64.40;28.17;;;0.70;99.90;;;;;;5031692;28;20057;-74
2023/12/06 01:31:41;;;;;;;57.92;25.95;;;0.70;99.90;;;;;;5005104;28;20049;-74
2023/12/06 01:34:07;;;;;;;67.18;27.52;;;0.70;99.90;;;;;;5025224;28;20052;-74
2023/12/06 01:36:34;;;;;;;67.78;27.60;;;0.70;99.90;;;;;;5023772;28;20595;-74
2023/12/06 01:39:00;;;;;;;60.63;27.30;;;0.70;99.90;;;;;;5023110;28;20137;-74
2023/12/06 01:41:26;;;;;;;68.88;27.55;;;0.70;99.90;;;;;;5024830;28;20033;-74
2023/12/06 01:43:51;;;;;;;62.40;26.90;;;0.70;99.90;;;;;;5028378;28;20056;-74
2023/12/06 01:46:18;;;;;;;64.80;27.35;;;0.70;99.90;;;;;;5032786;28;20048;-74
2023/12/06 01:48:43;;;;;;;63.25;27.67;;;0.70;99.90;;;;;;5032370;28;20036;-74
2023/12/06 01:51:10;;;;;;;62.72;26.20;;;0.70;99.90;;;;;;5019901;28;20338;-74
2023/12/06 01:53:37;;;;;;;63.00;27.60;;;0.70;99.90;;;;;;5029016;28;20045;-74
2023/12/06 01:56:05;;;;;;;60.13;26.20;;;0.70;99.90;;;;;;5033068;28;20068;-74
2023/12/06 01:58:32;;;;;;;64.10;27.15;;;0.70;99.90;;;;;;5030451;28;20116;-74
2023/12/06 02:00:58;;;;;;;59.30;26.25;;;0.70;99.90;;;;;;5039173;28;20051;-74
2023/12/06 02:03:24;;;;;;;61.05;27.58;;;0.70;99.90;;;;;;5029755;28;20543;-74
2023/12/06 02:05:50;;;;;;;63.20;25.75;;;0.70;99.90;;;;;;5039050;28;20037;-74
2023/12/06 02:08:16;;;;;;;62.92;26.02;;;0.70;99.90;;;;;;5030646;28;20033;-74
2023/12/06 02:10:42;;;;;;;61.03;27.20;;;0.70;99.90;;;;;;5044157;28;20131;-74
2023/12/06 02:13:08;;;;;;;63.58;28.73;;;0.70;99.90;;;;;;5045614;28;20419;-74
2023/12/06 02:15:34;;;;;;;63.38;26.23;;;0.70;99.90;;;;;;5034785;28;20128;-73
2023/12/06 02:18:01;;;;;;;62.20;27.83;;;0.70;99.90;;;;;;5045645;28;20068;-74
2023/12/06 02:20:27;;;;;;;66.57;28.30;;;0.70;99.90;;;;;;5036005;28;20033;-73
2023/12/06 02:22:55;;;;;;;66.40;28.45;;;0.70;99.90;;;;;;5029472;28;20045;-73
2023/12/06 02:25:20;;;;;;;67.85;27.33;;;0.70;99.90;;;;;;5040348;28;20111;-73
2023/12/06 02:27:46;;;;;;;69.63;28.20;;;0.70;99.90;;;;;;5033467;28;20194;-73
2023/12/06 02:30:12;;;;;;;69.65;27.48;;;0.70;99.90;;;;;;5027202;28;20079;-74
2023/12/06 02:32:38;;;;;;;68.35;27.02;;;0.70;99.90;;;;;;5027146;28;20108;-73
2023/12/06 02:35:28;;;;;;;60.40;26.48;;;0.70;99.90;;;;;;5025193;28;20041;-73
2023/12/06 02:37:56;;;;;;;58.17;25.95;;;0.70;99.90;;;;;;5031092;28;20051;-74
2023/12/06 02:40:25;;;;;;;67.07;27.08;;;0.70;99.90;;;;;;5026037;28;20040;-73
2023/12/06 02:42:50;;;;;;;68.43;26.20;;;0.70;99.90;;;;;;5005842;28;20056;-73
2023/12/06 02:45:16;;;;;;;67.57;28.13;;;0.70;99.90;;;;;;5023576;28;20050;-74
2023/12/06 02:47:42;;;;;;;67.03;28.05;;;0.70;99.90;;;;;;5030264;28;20044;-73
2023/12/06 02:50:08;;;;;;;63.10;27.27;;;0.70;99.90;;;;;;5021506;28;20065;-73
2023/12/06 02:52:33;;;;;;;71.53;27.88;;;0.70;99.90;;;;;;5029155;28;20443;-74
2023/12/06 02:54:59;;;;;;;64.63;27.48;;;0.70;99.90;;;;;;5027401;28;20041;-74
2023/12/06 02:57:25;;;;;;;66.85;28.17;;;0.70;99.90;;;;;;5026287;28;20037;-74
2023/12/06 02:59:50;;;;;;;66.72;27.60;;;0.70;99.90;;;;;;5016048;28;20045;-74
2023/12/06 03:02:16;;;;;;;69.75;28.38;;;0.70;99.90;;;;;;5032330;28;20037;-74
2023/12/06 03:04:41;;;;;;;67.10;26.42;;;0.70;99.90;;;;;;5025288;28;20056;-73
2023/12/06 03:07:07;;;;;;;70.10;28.27;;;0.70;99.90;;;;;;5018121;28;20029;-73
2023/12/06 03:09:33;;;;;;;69.05;28.27;;;0.80;99.90;;;;;;5037405;28;20355;-74
2023/12/06 03:11:58;;;;;;;73.05;28.92;;;0.80;99.90;;;;;;5032746;28;20048;-73
2023/12/06 03:14:24;;;;;;;66.30;25.85;;;0.80;99.90;;;;;;5042028;28;21098;-73
2023/12/06 03:16:49;;;;;;;66.68;26.65;;;0.80;99.90;;;;;;5022095;28;20054;-73
2023/12/06 03:19:15;;;;;;;74.22;27.92;;;0.70;99.90;;;;;;5015837;28;20033;-74
2023/12/06 03:21:40;;;;;;;64.20;26.25;;;0.70;99.90;;;;;;5039011;28;20075;-74
2023/12/06 03:24:06;;;;;;;66.50;27.10;;;0.70;99.90;;;;;;5040930;28;20048;-74
2023/12/06 03:26:32;;;;;;;71.80;27.23;;;0.70;99.90;;;;;;5025981;28;20422;-74
2023/12/06 03:28:57;;;;;;;63.95;25.88;;;0.70;99.90;;;;;;5015620;28;20165;-74
2023/12/06 03:31:23;;;;;;;63.53;25.30;;;0.70;99.90;;;;;;5039437;28;20057;-74
2023/12/06 03:33:48;;;;;;;65.07;25.90;;;0.70;99.90;;;;;;5035023;28;20436;-74
2023/12/06 03:36:14;;;;;;;59.97;26.20;;;0.70;99.90;;;;;;5038306;28;20045;-73
2023/12/06 03:38:40;;;;;;;68.47;26.25;;;0.70;99.90;;;;;;5018868;28;20048;-74
2023/12/06 03:41:06;;;;;;;65.65;26.10;;;0.70;99.90;;;;;;5029885;28;20053;-73
2023/12/06 03:43:31;;;;;;;64.55;27.63;;;0.60;99.90;;;;;;5037085;28;20684;-73
2023/12/06 03:45:57;;;;;;;62.55;25.30;;;0.70;99.90;;;;;;5018429;28;20582;-73
2023/12/06 03:48:23;;;;;;;62.83;25.58;;;0.60;99.90;;;;;;5014089;28;20203;-73
2023/12/06 03:50:48;;;;;;;63.72;26.85;;;0.70;99.90;;;;;;5015657;28;20118;-73
2023/12/06 03:53:14;;;;;;;62.88;25.02;;;0.70;99.90;;;;;;5032297;28;20167;-73
2023/12/06 03:55:40;;;;;;;57.42;24.42;;;0.60;99.90;;;;;;5015247;28;20504;-73
2023/12/06 03:58:06;;;;;;;56.58;23.75;;;0.60;99.90;;;;;;5029760;28;20107;-73
2023/12/06 04:00:31;;;;;;;55.58;23.05;;;0.60;99.90;;;;;;5043699;28;20484;-73
2023/12/06 04:02:57;;;;;;;55.88;23.05;;;0.60;99.90;;;;;;5034005;28;20033;-73
2023/12/06 04:05:23;;;;;;;54.65;24.45;;;0.60;99.90;;;;;;5037155;28;20492;-73
2023/12/06 04:07:49;;;;;;;55.92;22.80;;;0.70;99.90;;;;;;5030776;28;20128;-73
2023/12/06 04:10:15;;;;;;;49.08;21.75;;;0.70;99.90;;;;;;5028758;28;20033;-72
2023/12/06 04:12:40;;;;;;;50.58;21.77;;;0.70;99.90;;;;;;5032813;28;20040;-72
2023/12/06 04:15:07;;;;;;;51.63;21.75;;;0.70;99.90;;;;;;5029087;28;20044;-72
2023/12/06 04:17:32;;;;;;;50.75;21.83;;;0.70;99.90;;;;;;5029480;28;20099;-72
2023/12/06 04:19:58;;;;;;;47.25;20.65;;;0.70;99.90;;;;;;5030157;28;20041;-72
2023/12/06 04:22:24;;;;;;;44.42;21.42;;;0.70;99.90;;;;;;5028861;28;20095;-72
2023/12/06 04:24:49;;;;;;;48.45;20.67;;;0.70;99.90;;;;;;5027032;28;20123;-72
2023/12/06 04:27:15;;;;;;;47.38;20.08;;;0.70;99.90;;;;;;5023761;28;20093;-72
2023/12/06 04:29:41;;;;;;;45.13;19.85;;;0.70;99.90;;;;;;5009764;28;20119;-73
2023/12/06 04:32:06;;;;;;;47.13;21.10;;;0.70;99.90;;;;;;5027472;28;20479;-72
2023/12/06 04:34:33;;;;;;;50.30;20.90;;;0.70;99.90;;;;;;5028144;28;20037;-72
2023/12/06 04:36:59;;;;;;;42.15;19.02;;;0.80;99.90;;;;;;5025970;28;20065;-72
2023/12/06 04:39:24;;;;;;;41.00;19.13;;;0.80;99.90;;;;;;5028187;28;20374;-72
2023/12/06 04:41:50;;;;;;;42.50;20.30;;;0.80;99.90;;;;;;5010442;28;20038;-72
2023/12/06 04:44:15;;;;;;;40.65;19.48;;;0.80;99.90;;;;;;5013957;28;20043;-72
2023/12/06 04:46:41;;;;;;;45.00;20.50;;;0.80;99.90;;;;;;5032611;28;20095;-72
2023/12/06 04:49:07;;;;;;;46.80;19.70;;;0.80;99.90;;;;;;5027603;28;20072;-73
2023/12/06 04:51:33;;;;;;;38.58;18.50;;;0.80;99.90;;;;;;5029283;28;20040;-72
2023/12/06 04:53:58;;;;;;;42.90;20.08;;;0.80;99.90;;;;;;5026415;28;20049;-72
2023/12/06 04:56:24;;;;;;;43.47;19.33;;;0.80;99.90;;;;;;5025326;28;20647;-72
2023/12/06 04:58:49;;;;;;;41.22;19.77;;;0.80;99.90;;;;;;5011121;28;20152;-72
2023/12/06 05:01:15;;;;;;;45.65;19.90;;;0.80;99.90;;;;;;5015615;28;20033;-72
2023/12/06 05:03:41;;;;;;;41.60;19.92;;;0.80;99.90;;;;;;5026934;28;20072;-72
2023/12/06 05:06:07;;;;;;;42.03;20.55;;;0.80;99.90;;;;;;5030940;28;20060;-72
2023/12/06 05:08:32;;;;;;;43.20;19.48;;;0.80;99.90;;;;;;5034114;28;20507;-72
2023/12/06 05:10:58;;;;;;;44.22;20.08;;;0.80;99.90;;;;;;5028175;28;20045;-72
2023/12/06 05:13:24;;;;;;;42.67;19.63;;;0.80;99.90;;;;;;5031512;28;20078;-72
2023/12/06 05:15:49;;;;;;;46.08;21.25;;;0.80;99.90;;;;;;5044760;28;20049;-72
2023/12/06 05:18:15;;;;;;;44.90;21.10;;;0.80;99.90;;;;;;5046793;28;20445;-72
2023/12/06 05:20:40;;;;;;;41.13;19.83;;;0.80;99.90;;;;;;5029418;28;20075;-72
2023/12/06 05:23:06;;;;;;;44.25;20.10;;;0.80;99.90;;;;;;5044186;28;20037;-72
2023/12/06 05:25:32;;;;;;;42.90;20.02;;;0.80;99.90;;;;;;5046803;28;20499;-72
2023/12/06 05:27:58;;;;;;;38.72;18.92;;;0.80;99.90;;;;;;5032393;28;20041;-72
2023/12/06 05:30:24;;;;;;;45.30;20.92;;;0.80;99.90;;;;;;5030384;28;20053;-72
2023/12/06 05:32:50;;;;;;;42.60;19.48;;;0.80;99.90;;;;;;5034677;28;20541;-72
2023/12/06 05:35:16;;;;;;;40.63;19.88;;;0.80;99.90;;;;;;5042302;28;20044;-72
2023/12/06 05:37:41;;;;;;;42.20;20.65;;;0.90;99.90;;;;;;5035167;28;20071;-71
2023/12/06 05:40:07;;;;;;;41.83;19.83;;;0.80;99.90;;;;;;5027361;28;20034;-72
2023/12/06 05:42:33;;;;;;;39.33;19.40;;;0.90;99.90;;;;;;5019083;28;20033;-72
2023/12/06 05:44:59;;;;;;;41.60;18.42;;;0.80;99.90;;;;;;5004312;28;20048;-71
2023/12/06 05:47:25;;;;;;;42.88;19.90;;;0.80;99.90;;;;;;5010469;28;20311;-72
2023/12/06 05:49:51;;;;;;;46.60;20.75;;;0.80;99.90;;;;;;5033809;28;20543;-71
2023/12/06 05:52:17;;;;;;;41.83;19.55;;;0.90;99.90;;;;;;5029114;28;20184;-71
2023/12/06 05:54:42;;;;;;;41.13;20.25;;;0.90;99.90;;;;;;5017598;28;20136;-71
2023/12/06 05:57:09;;;;;;;41.80;19.58;;;0.80;99.90;;;;;;5010423;28;20043;-70
2023/12/06 05:59:34;;;;;;;42.70;20.35;;;0.90;99.90;;;;;;5033673;28;20048;-71
2023/12/06 06:02:00;;;;;;;40.63;19.50;;;0.90;99.90;;;;;;5031310;28;20045;-70
2023/12/06 06:04:26;;;;;;;39.92;20.00;;;0.80;99.90;;;;;;5040782;28;20068;-70
2023/12/06 06:06:51;;;;;;;35.90;18.83;;;0.80;99.90;;;;;;5025206;28;20130;-70
2023/12/06 06:09:17;;;;;;;39.30;19.75;;;0.90;99.90;;;;;;5021390;28;20044;-70
2023/12/06 06:11:43;;;;;;;42.38;19.73;;;0.90;99.90;;;;;;5032966;28;20068;-70
2023/12/06 06:14:09;;;;;;;39.55;19.02;;;0.90;99.90;;;;;;5035402;28;20131;-70
2023/12/06 06:16:35;;;;;;;41.00;19.42;;;0.80;99.90;;;;;;5034754;28;20198;-70
2023/12/06 06:19:00;;;;;;;40.58;19.65;;;0.90;99.90;;;;;;5026872;28;20046;-70
2023/12/06 06:21:26;;;;;;;40.25;19.73;;;0.80;99.90;;;;;;5010959;28;20057;-70
2023/12/06 06:23:52;;;;;;;34.70;17.90;;;0.90;99.90;;;;;;5033380;28;20083;-70
2023/12/06 06:26:17;;;;;;;42.85;19.58;;;0.90;99.90;;;;;;5039547;28;20032;-70
2023/12/06 06:28:43;;;;;;;34.53;18.30;;;0.90;99.90;;;;;;5030496;28;20481;-70
2023/12/06 06:31:09;;;;;;;44.33;21.33;;;0.90;99.90;;;;;;5030730;28;20053;-70
2023/12/06 06:33:35;;;;;;;46.05;24.00;;;0.90;99.90;;;;;;5026999;28;20052;-70
2023/12/06 06:36:01;;;;;;;49.08;25.17;;;0.90;99.90;;;;;;5011003;28;20056;-70
2023/12/06 06:38:26;;;;;;;49.63;25.50;;;0.90;99.90;;;;;;5029890;28;20393;-70
2023/12/06 06:40:52;;;;;;;41.00;22.58;;;0.90;99.90;;;;;;5022791;28;20121;-70
2023/12/06 06:43:17;;;;;;;43.85;21.88;;;0.90;99.90;;;;;;5012569;28;20120;-70
2023/12/06 06:45:43;;;;;;;45.28;22.42;;;0.90;99.90;;;;;;5008620;28;20033;-70
2023/12/06 06:48:09;;;;;;;41.20;20.05;;;0.90;99.90;;;;;;5034011;28;20049;-70
2023/12/06 06:50:35;;;;;;;42.35;21.55;;;0.90;99.90;;;;;;5025784;28;20061;-70
2023/12/06 06:53:01;;;;;;;41.28;20.23;;;0.90;99.90;;;;;;5033290;28;20484;-70
2023/12/06 06:55:27;;;;;;;46.58;22.83;;;0.90;99.90;;;;;;5027863;28;20385;-70
2023/12/06 06:57:53;;;;;;;41.08;20.10;;;0.90;99.90;;;;;;5040018;28;20119;-70
2023/12/06 07:00:20;;;;;;;39.10;20.13;;;0.90;99.90;;;;;;5010682;28;20040;-70
2023/12/06 07:02:46;;;;;;;39.78;19.90;;;0.90;99.90;;;;;;5041653;28;20040;-70
2023/12/06 07:05:13;;;;;;;40.80;20.90;;;0.90;99.90;;;;;;5045045;28;20090;-70
2023/12/06 07:07:40;;;;;;;44.97;22.02;;;1.00;99.90;;;;;;5030385;28;20036;-70
2023/12/06 07:10:06;;;;;;;36.15;18.48;;;0.90;99.90;;;;;;5043788;28;20060;-70
2023/12/06 07:12:32;;;;;;;37.03;19.20;;;0.90;99.90;;;;;;5024485;28;20081;-70
2023/12/06 07:14:59;;;;;;;37.10;19.38;;;0.90;99.90;;;;;;5044460;28;20037;-70
2023/12/06 07:17:29;;;;;;;37.85;18.58;;;0.90;99.90;;;;;;5039764;28;20049;-70
2023/12/06 07:19:55;;;;;;;38.80;18.25;;;0.90;99.90;;;;;;5045340;28;20044;-71
2023/12/06 07:22:22;;;;;;;42.60;18.88;;;1.00;99.90;;;;;;5039346;28;20339;-72
2023/12/06 07:24:48;;;;;;;34.63;18.38;;;1.00;99.90;;;;;;5028329;28;20042;-71
2023/12/06 07:27:14;;;;;;;39.40;18.20;;;1.00;99.90;;;;;;5011295;28;20370;-72
2023/12/06 07:29:41;;;;;;;39.40;18.77;;;1.00;99.90;;;;;;5035931;28;20150;-72
2023/12/06 07:32:07;;;;;;;37.03;19.42;;;1.00;99.90;;;;;;5021687;28;20084;-71
2023/12/06 07:34:33;;;;;;;38.85;18.95;;;1.00;99.90;;;;;;5045505;28;20076;-73
2023/12/06 07:36:58;;;;;;;40.60;20.10;;;1.00;99.90;;;;;;5030825;28;20049;-72
2023/12/06 07:39:24;;;;;;;44.03;21.77;;;1.00;99.90;;;;;;5029360;28;20044;-72
2023/12/06 07:41:50;;;;;;;37.13;20.10;;;1.00;99.90;;;;;;5026228;28;20125;-72
2023/12/06 07:44:17;;;;;;;41.60;19.63;;;1.00;99.90;;;;;;5045981;28;20068;-72
2023/12/06 07:46:44;;;;;;;39.42;20.45;;;1.00;99.90;;;;;;5031950;28;20064;-72
2023/12/06 07:49:09;;;;;;;34.53;18.48;;;1.10;99.90;;;;;;5042484;28;20129;-72
2023/12/06 07:51:38;;;;;;;38.58;18.27;;;1.10;99.90;;;;;;5039036;28;20468;-72
2023/12/06 07:54:04;;;;;;;39.88;19.95;;;1.10;99.90;;;;;;5028954;28;20393;-72
2023/12/06 07:56:30;;;;;;;37.58;18.83;;;1.10;99.90;;;;;;5038923;28;20037;-72
2023/12/06 07:58:57;;;;;;;35.83;18.13;;;1.10;99.90;;;;;;5047029;28;20044;-73
2023/12/06 08:01:24;;;;;;;34.38;17.92;;;1.10;99.90;;;;;;5047306;28;20194;-73
2023/12/06 08:03:50;;;;;;;41.20;20.15;;;1.10;99.90;;;;;;5036961;28;20045;-73
2023/12/06 08:06:17;;;;;;;39.50;19.17;;;1.10;99.90;;;;;;5042905;28;20033;-72
2023/12/06 08:08:42;;;;;;;41.47;20.92;;;1.10;99.90;;;;;;5031871;28;20046;-73
2023/12/06 08:11:08;;;;;;;43.47;21.83;;;1.10;99.90;;;;;;5014965;28;20043;-72
2023/12/06 08:13:33;;;;;;;41.20;20.55;;;1.10;99.90;;;;;;5026714;28;20045;-72
2023/12/06 08:15:59;;;;;;;44.22;22.25;;;1.10;99.90;;;;;;5049411;28;20040;-72
2023/12/06 08:18:25;;;;;;;45.33;21.52;;;1.10;99.90;;;;;;5033886;28;20758;-73
2023/12/06 08:20:50;;;;;;;46.70;23.02;;;1.20;99.90;;;;;;5031019;28;20052;-72
2023/12/06 08:23:16;;;;;;;44.15;23.10;;;1.20;99.90;;;;;;5022179;28;20071;-73
2023/12/06 08:25:41;;;;;;;52.83;26.48;;;1.20;99.90;;;;;;5031421;28;20075;-72
2023/12/06 08:28:07;;;;;;;50.28;24.98;;;1.20;99.90;;;;;;5014368;28;20033;-71
2023/12/06 08:30:33;;;;;;;48.83;24.83;;;1.20;99.90;;;;;;5045747;28;20243;-71
2023/12/06 08:32:58;;;;;;;46.42;24.45;;;1.20;99.90;;;;;;5045657;28;20521;-71
2023/12/06 08:35:24;;;;;;;49.55;24.50;;;1.20;99.90;;;;;;5023693;28;20060;-72
2023/12/06 08:37:49;;;;;;;51.85;24.95;;;1.20;99.90;;;;;;5042284;28;20634;-71
2023/12/06 08:40:15;;;;;;;46.65;22.63;;;1.20;99.90;;;;;;5014765;28;20033;-72
2023/12/06 08:42:41;;;;;;;42.22;21.38;;;1.20;99.90;;;;;;5030935;28;20670;-71
2023/12/06 08:45:09;;;;;;;41.42;21.45;;;1.20;99.90;;;;;;5042379;28;20085;-71
2023/12/06 08:47:35;;;;;;;48.95;22.15;;;1.20;99.90;;;;;;5038463;28;20488;-71
2023/12/06 08:50:04;;;;;;;43.65;21.58;;;1.30;99.90;;;;;;5042573;28;20045;-71
2023/12/06 08:52:30;;;;;;;38.63;19.00;;;1.30;99.90;;;;;;5042924;28;20546;-72
2023/12/06 08:54:55;;;;;;;39.78;18.63;;;1.30;99.90;;;;;;5033973;28;20068;-71
2023/12/06 08:57:21;;;;;;;35.30;17.67;;;1.30;99.90;;;;;;5039471;28;20048;-71
2023/12/06 08:59:47;;;;;;;34.97;18.42;;;1.40;99.90;;;;;;5048069;28;20112;-70
2023/12/06 09:02:12;;;;;;;40.30;19.52;;;1.40;99.90;;;;;;5048285;28;20037;-70
2023/12/06 09:04:38;;;;;;;39.00;20.15;;;1.40;99.90;;;;;;5044755;28;20125;-70
2023/12/06 09:07:04;;;;;;;37.42;19.30;;;1.40;99.90;;;;;;5030684;28;20043;-70
2023/12/06 09:09:31;;;;;;;31.48;17.92;;;1.40;99.90;;;;;;5031845;28;20115;-70
2023/12/06 09:11:57;;;;;;;38.08;18.55;;;1.40;99.90;;;;;;5038693;28;20420;-71
2023/12/06 09:14:22;;;;;;;38.60;19.02;;;1.40;99.90;;;;;;5045519;28;20420;-72
2023/12/06 09:16:48;;;;;;;40.38;19.60;;;1.40;99.90;;;;;;5033816;28;20045;-72
2023/12/06 09:19:14;;;;;;;36.38;18.58;;;1.40;99.90;;;;;;5035476;28;20106;-71
2023/12/06 09:21:43;;;;;;;33.15;17.17;;;1.50;99.90;;;;;;5017732;28;20476;-71
2023/12/06 09:24:12;;;;;;;34.97;17.97;;;1.50;99.90;;;;;;5019766;28;20044;-71
2023/12/06 09:26:39;;;;;;;31.52;17.63;;;1.50;99.90;;;;;;5049376;28;20124;-72
2023/12/06 09:29:06;;;;;;;36.15;18.30;;;1.50;99.90;;;;;;5049581;28;20076;-72
2023/12/06 09:31:36;;;;;;;38.10;17.45;;;1.50;99.90;;;;;;5047694;28;20041;-72
2023/12/06 09:34:02;;;;;;;42.80;18.87;;;1.50;99.90;;;;;;5044517;28;20086;-71
2023/12/06 09:36:28;;;;;;;38.15;16.70;;;1.60;99.90;;;;;;5036377;28;20549;-72
2023/12/06 09:38:58;;;;;;;45.05;19.98;;;1.60;99.90;;;;;;5030879;28;20072;-72
2023/12/06 09:41:30;;;;;;;42.15;19.60;;;1.60;99.90;;;;;;5039651;28;20053;-73
2023/12/06 09:43:57;;;;;;;34.45;18.30;;;1.70;99.90;;;;;;5038087;28;20037;-73
2023/12/06 09:46:23;;;;;;;36.35;18.33;;;1.70;99.90;;;;;;5045351;28;20132;-73
2023/12/06 09:48:49;;;;;;;37.40;18.77;;;1.70;99.90;;;;;;5035850;28;20043;-73
2023/12/06 09:51:16;;;;;;;35.15;18.33;;;1.80;99.90;;;;;;5034513;28;20037;-73
2023/12/06 09:53:42;;;;;;;36.95;18.65;;;1.80;99.90;;;;;;5036385;28;20045;-73
2023/12/06 09:56:09;;;;;;;34.25;18.35;;;1.80;99.90;;;;;;5016719;28;20052;-74
2023/12/06 09:58:35;;;;;;;34.53;17.80;;;1.80;99.90;;;;;;5036535;28;20037;-75
2023/12/06 10:01:02;;;;;;;36.67;17.92;;;1.90;99.90;;;;;;5046130;28;20060;-75
2023/12/06 10:03:27;;;;;;;38.35;18.08;;;1.90;99.90;;;;;;5029692;28;20120;-76
2023/12/06 10:05:58;;;;;;;30.85;16.77;;;1.90;99.90;;;;;;5027229;28;20148;-76
2023/12/06 10:08:26;;;;;;;40.53;18.30;;;1.90;99.90;;;;;;5034550;28;20048;-75
2023/12/06 10:11:06;;;;;;;34.05;17.23;;;1.90;99.90;;;;;;5044568;28;20124;-75
2023/12/06 10:13:41;;;;;;;29.00;16.88;;;1.90;99.90;;;;;;5029060;28;20477;-76
2023/12/06 10:16:19;;;;;;;36.35;18.25;;;1.90;99.90;;;;;;5012716;28;20041;-76
2023/12/06 10:18:47;;;;;;;32.47;16.52;;;1.90;99.90;;;;;;5016635;28;20067;-76
2023/12/06 10:21:17;;;;;;;33.95;16.67;;;1.90;99.90;;;;;;5025972;28;20040;-75
2023/12/06 10:23:53;;;;;;;32.90;17.40;;;1.90;99.90;;;;;;5048393;28;20131;-75
2023/12/06 10:26:19;;;;;;;28.25;15.20;;;1.90;99.90;;;;;;5037614;28;20112;-77
2023/12/06 10:28:45;;;;;;;30.77;16.75;;;1.90;99.90;;;;;;5039625;28;20733;-75
2023/12/06 10:31:10;;;;;;;33.50;16.30;;;2.00;99.90;;;;;;5043559;28;20106;-76
2023/12/06 10:33:39;;;;;;;33.88;17.13;;;2.00;99.90;;;;;;5037599;28;20037;-76
2023/12/06 10:36:08;;;;;;;29.77;15.45;;;2.00;99.90;;;;;;5037484;28;20485;-75
2023/12/06 10:38:41;;;;;;;33.60;16.63;;;2.00;99.90;;;;;;5041615;28;20043;-75
2023/12/06 10:41:09;;;;;;;31.80;14.93;;;2.00;99.90;;;;;;5029257;28;20425;-75
2023/12/06 10:43:36;;;;;;;29.23;15.77;;;2.10;99.90;;;;;;5028362;28;20033;-75
2023/12/06 10:46:06;;;;;;;29.05;15.60;;;2.10;99.90;;;;;;5045126;28;20095;-76
2023/12/06 10:48:34;;;;;;;32.53;16.10;;;2.10;99.90;;;;;;5014983;28;20045;-74
2023/12/06 10:51:02;;;;;;;34.47;17.02;;;2.10;99.90;;;;;;5038401;28;20127;-75
2023/12/06 10:53:28;;;;;;;32.28;17.20;;;2.20;99.90;;;;;;5015498;28;20071;-75
2023/12/06 10:55:55;;;;;;;32.90;16.23;;;2.20;99.90;;;;;;5031076;28;20496;-75
2023/12/06 10:58:24;;;;;;;32.72;16.30;;;2.20;99.90;;;;;;5032173;28;20054;-75
2023/12/06 11:00:50;;;;;;;34.20;17.05;;;2.20;99.90;;;;;;5043061;28;20045;-75
2023/12/06 11:03:16;;;;;;;32.80;16.80;;;2.30;99.90;;;;;;5034590;28;20059;-76
2023/12/06 11:05:51;;;;;;;32.72;16.20;;;2.20;99.90;;;;;;5031644;28;20040;-75
2023/12/06 11:08:44;;;;;;;32.42;16.23;;;2.20;99.90;;;;;;5042070;28;20126;-75
2023/12/06 11:11:29;;;;;;;29.83;16.58;;;2.20;99.90;;;;;;5029567;28;20723;-75
2023/12/06 11:14:13;;;;;;;31.58;16.40;;;2.30;99.90;;;;;;5025027;28;20045;-75
2023/12/06 11:17:16;;;;;;;29.95;15.60;;;2.30;99.90;;;;;;5038148;28;20045;-76
2023/12/06 11:19:44;;;;;;;30.42;14.85;;;2.30;99.90;;;;;;5026025;28;20049;-76
2023/12/06 11:22:10;;;;;;;37.78;18.17;;;2.30;99.90;;;;;;5014171;28;20041;-77
2023/12/06 11:24:36;;;;;;;31.98;15.85;;;2.40;99.90;;;;;;5030361;28;20499;-78
2023/12/06 11:27:03;;;;;;;33.80;17.00;;;2.40;99.90;;;;;;5036255;28;20088;-76
2023/12/06 11:29:30;;;;;;;31.40;16.13;;;2.40;99.90;;;;;;5045690;28;20060;-76
2023/12/06 11:31:58;;;;;;;30.15;16.30;;;2.40;99.90;;;;;;5032863;28;20048;-76
2023/12/06 11:34:34;;;;;;;35.92;17.50;;;2.40;99.90;;;;;;5040793;28;20041;-74
2023/12/06 11:37:17;;;;;;;36.20;18.30;;;2.40;99.90;;;;;;5024644;28;20550;-77
2023/12/06 11:40:17;;;;;;;30.70;16.92;;;2.50;99.90;;;;;;5027833;28;20476;-76
2023/12/06 11:43:03;;;;;;;32.75;17.33;;;2.40;99.90;;;;;;5030279;28;20029;-76
2023/12/06 11:45:30;;;;;;;30.75;16.33;;;2.50;99.90;;;;;;5034845;28;20051;-76
2023/12/06 11:48:01;;;;;;;33.78;16.52;;;2.50;99.90;;;;;;5032193;28;20132;-76
2023/12/06 11:50:26;;;;;;;34.70;17.02;;;2.50;99.90;;;;;;5034940;28;20049;-77
2023/12/06 11:52:55;;;;;;;35.67;19.25;;;2.50;99.90;;;;;;5032961;28;20037;-76
2023/12/06 11:55:23;;;;;;;32.55;18.35;;;2.50;99.90;;;;;;5037954;28;20041;-75
2023/12/06 11:58:06;;;;;;;33.30;19.08;;;2.50;99.90;;;;;;5015274;28;20448;-75
2023/12/06 12:00:32;;;;;;;34.85;20.90;;;2.60;99.90;;;;;;5033556;28;20045;-75
2023/12/06 12:03:00;;;;;;;34.30;19.88;;;2.60;99.90;;;;;;5043906;28;20111;-74
2023/12/06 12:05:25;;;;;;;33.13;18.13;;;2.60;99.90;;;;;;5041949;28;20040;-74
2023/12/06 12:07:52;;;;;;;31.42;16.92;;;2.60;99.90;;;;;;5050333;28;20132;-73
2023/12/06 12:10:19;;;;;;;29.10;16.40;;;2.70;99.90;;;;;;5048916;28;20037;-74
2023/12/06 12:12:48;;;;;;;30.92;16.35;;;2.70;99.90;;;;;;5044697;28;20132;-73
2023/12/06 12:15:15;;;;;;;32.10;16.35;;;2.70;99.90;;;;;;5046158;28;20041;-74
2023/12/06 12:17:41;;;;;;;33.15;17.15;;;2.70;99.90;;;;;;5050833;28;20135;-74
2023/12/06 12:20:07;;;;;;;29.67;16.65;;;2.70;99.90;;;;;;5025510;28;20042;-76
2023/12/06 12:22:52;;;;;;;31.45;16.23;;;2.70;99.90;;;;;;5018451;28;20047;-74
2023/12/06 12:25:19;;;;;;;31.98;15.82;;;2.70;99.90;;;;;;5047557;28;20434;-75
2023/12/06 12:27:48;;;;;;;30.88;16.08;;;2.70;99.90;;;;;;5050915;28;20099;-74
2023/12/06 12:30:14;;;;;;;30.45;16.38;;;2.70;99.90;;;;;;5032774;28;20061;-74
2023/12/06 12:32:46;;;;;;;31.17;16.10;;;2.70;99.90;;;;;;5041374;28;20084;-73
2023/12/06 12:35:12;;;;;;;28.63;14.98;;;2.70;99.90;;;;;;5037784;28;20047;-75